CST,Max TemperatureF,Mean TemperatureF,Min TemperatureF,Max Dew PointF,MeanDew PointF,Min DewpointF,Max Humidity, Mean Humidity, Min Humidity, Max Sea Level PressureIn, Mean Sea Level PressureIn, Min Sea Level PressureIn, Max VisibilityMiles, Mean VisibilityMiles, Min VisibilityMiles, Max Wind SpeedMPH, Mean Wind SpeedMPH, Max Gust SpeedMPH,PrecipitationIn, CloudCover, Events, WindDirDegrees
2012-12-1,55,42,30,55,45,30,100,98,81,30.02,29.89,29.79,7,2,0,10,3,,0.00,7,Fog,200
2012-12-2,55,42,28,52,40,28,100,96,72,30.06,29.96,29.84,10,3,0,9,1,,0.01,5,Fog,154
2012-12-3,60,44,28,57,40,25,100,78,36,30.11,29.84,29.66,10,7,2,26,11,34,0.00,2,,236
2012-12-4,57,42,26,28,20,12,86,55,17,30.36,30.25,30.12,10,10,4,14,3,10,0.00,0,,322
2012-12-5,51,38,26,27,23,19,80,55,34,30.38,30.19,29.96,10,10,10,22,9,29,0.00,0,,145
2012-12-6,46,42,37,36,31,28,81,63,50,30.03,29.97,29.93,10,10,10,16,7,20,0.01,7,Rain,340
2012-12-7,42,35,28,30,26,19,93,70,42,30.03,29.98,29.93,10,10,10,12,5,,0.00,5,,29
2012-12-8,37,27,17,30,26,16,100,83,65,30.05,29.98,29.92,10,8,3,15,4,18,0.00,3,,126
2012-12-9,35,24,12,36,21,5,100,81,63,30.09,29.97,29.87,10,8,2,33,14,40,0.03,7,Rain-Snow,265
2012-12-10,26,14,3,9,2,-2,85,60,29,30.09,30.02,29.93,10,10,10,21,12,28,0.00,2,,259
2012-12-11,42,30,19,19,14,7,80,59,31,30.04,29.99,29.93,10,10,10,20,8,25,0.00,2,,241
2012-12-12,51,36,21,18,12,3,86,45,14,30.05,30.02,29.97,10,10,10,30,12,38,0.00,0,,188
2012-12-13,48,34,21,18,14,10,80,44,25,30.12,30.06,30.01,10,10,10,17,10,22,0.00,0,,208
2012-12-14,53,36,19,39,25,14,93,63,35,30.11,29.93,29.65,10,10,7,17,7,23,0.00,3,Rain,145
2012-12-15,46,40,33,45,40,32,100,95,66,29.73,29.59,29.49,10,6,1,22,13,26,0.42,8,Rain,245
2012-12-16,33,30,28,32,29,27,100,92,86,29.83,29.79,29.73,10,6,1,14,8,,0.00,8,Snow,331
2012-12-17,32,28,23,30,28,23,100,98,87,29.82,29.74,29.66,10,5,2,9,2,,0.03,7,,174
2012-12-18,33,27,21,30,28,21,100,95,81,29.89,29.69,29.50,10,5,3,24,7,32,0.00,4,,255
2012-12-19,35,28,21,34,29,21,100,97,87,29.96,29.88,29.75,7,3,0,30,5,34,0.00,4,Rain-Snow,44
2012-12-20,28,20,12,27,17,9,100,89,79,30.21,29.97,29.76,10,9,2,37,26,43,0.00,4,,323
2012-12-21,19,11,3,12,8,1,100,85,63,30.36,30.28,30.21,10,10,7,8,2,,0.03,0,,315
2012-12-22,30,19,8,25,15,7,100,83,64,30.21,30.05,29.94,10,10,7,14,4,,0.02,0,,251
2012-12-23,19,14,8,18,12,7,100,89,74,30.08,30.04,29.99,10,7,4,13,7,,0.00,2,,16
2012-12-24,19,14,8,18,10,1,100,83,67,30.29,30.13,30.02,10,8,2,20,13,24,0.00,4,Snow,339
2012-12-25,12,6,1,7,1,-4,85,78,67,30.49,30.39,30.30,10,10,10,16,12,20,0.00,0,,6
2012-12-26,17,8,0,10,3,-4,92,82,67,30.37,30.27,30.19,10,10,10,10,5,,0.00,0,,16
2012-12-27,21,14,8,19,14,5,93,89,85,30.21,30.10,30.03,10,8,0,12,4,,0.00,6,Snow,84
2012-12-28,21,18,14,19,18,10,100,93,86,30.11,30.03,29.98,10,5,1,16,5,18,0.00,8,Snow,325
2012-12-29,15,9,3,12,8,0,100,88,73,30.25,30.20,30.11,10,7,2,18,9,23,0.00,3,Snow,260
2012-12-30,39,20,0,27,14,-2,100,79,56,30.27,30.13,29.96,10,9,3,18,5,26,0.06,0,,230
2012-12-31,21,14,6,18,13,3,100,84,68,30.28,30.20,30.11,10,10,5,12,8,16,0.00,4,,9